createdAt,value
2023-02-09T00:01:23.748Z,12.23
2023-02-09T00:03:52.800Z,11.02
2023-02-09T00:06:21.969Z,11.25
2023-02-09T00:08:49.022Z,15.73
2023-02-09T00:11:47.619Z,16.10
2023-02-09T00:14:20.207Z,12.75
2023-02-09T00:16:50.470Z,18.77
2023-02-09T00:19:18.246Z,12.05
2023-02-09T00:21:45.173Z,14.65
2023-02-09T00:24:14.915Z,12.70
2023-02-09T00:26:42.854Z,13.30
2023-02-09T00:29:11.344Z,15.90
2023-02-09T00:31:38.258Z,11.55
2023-02-09T00:34:08.020Z,14.98
2023-02-09T00:36:35.175Z,15.48
2023-02-09T00:39:03.063Z,12.88
2023-02-09T00:41:49.755Z,14.93
2023-02-09T00:44:17.599Z,15.25
2023-02-09T00:46:44.618Z,12.27
2023-02-09T00:49:12.950Z,17.98
2023-02-09T00:51:39.865Z,16.15
2023-02-09T00:54:08.004Z,12.55
2023-02-09T00:56:34.848Z,13.02
2023-02-09T00:59:01.698Z,14.63
2023-02-09T01:01:28.640Z,14.98
2023-02-09T01:03:56.883Z,20.08
2023-02-09T01:06:23.743Z,15.45
2023-02-09T01:08:50.952Z,13.45
2023-02-09T01:11:19.114Z,20.45
2023-02-09T01:13:47.681Z,15.82
2023-02-09T01:16:18.126Z,18.33
2023-02-09T01:18:46.285Z,16.30
2023-02-09T01:21:16.180Z,16.63
2023-02-09T01:23:44.886Z,14.50
2023-02-09T01:26:14.408Z,16.77
2023-02-09T01:28:47.775Z,14.57
2023-02-09T01:31:28.829Z,16.38
2023-02-09T01:33:57.802Z,12.88
2023-02-09T01:36:28.132Z,14.63
2023-02-09T01:38:58.587Z,15.30
2023-02-09T01:41:26.018Z,16.13
2023-02-09T01:44:25.297Z,18.50
2023-02-09T01:46:53.472Z,16.30
2023-02-09T01:49:30.775Z,14.73
2023-02-09T01:52:02.940Z,16.63
2023-02-09T01:54:40.547Z,15.60
2023-02-09T01:57:14.474Z,16.90
2023-02-09T01:59:46.798Z,16.00
2023-02-09T02:02:14.703Z,16.58
2023-02-09T02:04:43.865Z,17.45
2023-02-09T02:07:21.585Z,15.57
2023-02-09T02:09:49.405Z,15.82
2023-02-09T02:12:19.905Z,18.98
2023-02-09T02:14:46.868Z,18.50
2023-02-09T02:17:51.206Z,19.52
2023-02-09T02:20:51.899Z,20.38
2023-02-09T02:30:41.368Z,17.92
2023-02-09T02:33:54.679Z,14.63
2023-02-09T02:36:41.454Z,16.67
2023-02-09T02:39:30.584Z,20.27
2023-02-09T02:42:40.194Z,15.05
2023-02-09T02:45:26.236Z,19.20
2023-02-09T02:48:25.167Z,19.88
2023-02-09T02:51:01.486Z,20.08
2023-02-09T02:53:32.052Z,15.02
2023-02-09T02:56:26.377Z,17.10
2023-02-09T02:58:57.021Z,16.90
2023-02-09T03:01:29.590Z,20.10
2023-02-09T03:03:58.760Z,13.52
2023-02-09T03:06:25.751Z,17.98
2023-02-09T03:08:55.783Z,12.57
2023-02-09T03:11:27.898Z,14.70
2023-02-09T03:14:19.431Z,16.27
2023-02-09T03:17:07.992Z,17.70
2023-02-09T03:19:52.555Z,17.98
2023-02-09T03:22:41.955Z,18.30
2023-02-09T03:25:26.261Z,16.60
2023-02-09T03:28:09.397Z,13.68
2023-02-09T03:30:42.239Z,15.88
2023-02-09T03:33:28.628Z,18.67
2023-02-09T03:36:00.626Z,15.60
2023-02-09T03:38:28.255Z,18.73
2023-02-09T03:40:57.442Z,16.02
2023-02-09T03:43:44.277Z,15.48
2023-02-09T03:46:17.488Z,16.73
2023-02-09T03:48:56.190Z,15.35
2023-02-09T03:51:34.664Z,18.00
2023-02-09T03:54:08.647Z,19.13
2023-02-09T03:56:46.959Z,17.85
2023-02-09T03:59:22.781Z,17.45
2023-02-09T04:02:03.836Z,19.60
2023-02-09T04:05:05.681Z,20.10
2023-02-09T04:07:34.239Z,21.35
2023-02-09T04:10:04.748Z,13.48
2023-02-09T04:12:36.576Z,14.82
2023-02-09T04:18:07.393Z,21.13
2023-02-09T04:20:35.513Z,19.15
2023-02-09T04:23:03.399Z,18.17
2023-02-09T04:25:30.625Z,20.10
2023-02-09T04:28:00.159Z,9.90
2023-02-09T04:30:27.415Z,17.60
2023-02-09T04:32:54.333Z,21.23
2023-02-09T04:35:23.744Z,24.80
2023-02-09T04:37:51.637Z,20.13
2023-02-09T04:40:18.980Z,20.98
2023-02-09T04:42:47.067Z,16.60
2023-02-09T04:45:15.168Z,16.85
2023-02-09T04:47:43.372Z,16.77
2023-02-09T04:50:11.150Z,13.60
2023-02-09T04:52:38.400Z,13.25
2023-02-09T04:55:05.568Z,20.48
2023-02-09T04:57:50.796Z,21.98
2023-02-09T05:00:23.465Z,21.63
2023-02-09T05:05:22.659Z,20.63
2023-02-09T05:07:55.673Z,21.35
2023-02-09T05:12:50.805Z,22.17
2023-02-09T05:15:17.752Z,21.33
2023-02-09T05:17:46.835Z,20.02
2023-02-09T05:20:16.336Z,21.38
2023-02-09T05:22:43.535Z,21.52
2023-02-09T05:25:10.360Z,16.45
2023-02-09T05:27:38.543Z,14.88
2023-02-09T05:30:06.378Z,22.70
2023-02-09T05:32:33.398Z,20.20
2023-02-09T05:35:00.273Z,20.25
2023-02-09T05:37:27.577Z,20.40
2023-02-09T05:39:54.438Z,21.52
2023-02-09T05:42:25.872Z,19.83
2023-02-09T05:47:22.969Z,23.42
2023-02-09T05:49:49.802Z,21.33
2023-02-09T05:52:17.879Z,21.30
2023-02-09T05:54:49.799Z,22.15
2023-02-09T05:57:17.922Z,25.33
2023-02-09T05:59:45.340Z,20.20
2023-02-09T06:02:12.309Z,21.60
2023-02-09T06:04:46.331Z,23.75
2023-02-09T06:07:14.522Z,21.52
2023-02-09T06:09:41.414Z,20.20
2023-02-09T06:12:08.326Z,20.58
2023-02-09T06:14:35.229Z,23.63
2023-02-09T06:17:08.067Z,21.55
2023-02-09T06:19:35.272Z,22.05
2023-02-09T06:22:03.141Z,18.10
2023-02-09T06:24:30.148Z,17.05
2023-02-09T06:26:57.996Z,19.52
2023-02-09T06:29:25.224Z,18.88
2023-02-09T06:31:53.402Z,15.00
2023-02-09T06:34:20.711Z,19.98
2023-02-09T06:36:47.629Z,17.33
2023-02-09T06:39:18.853Z,11.55
2023-02-09T06:41:47.290Z,22.33
2023-02-09T06:44:15.848Z,24.65
2023-02-09T06:46:42.855Z,20.05
2023-02-09T06:49:09.893Z,21.42
2023-02-09T06:51:37.944Z,22.38
2023-02-09T06:54:05.115Z,18.77
2023-02-09T06:56:32.275Z,16.98
2023-02-09T06:58:59.184Z,19.98
2023-02-09T07:01:26.336Z,20.98
2023-02-09T07:03:56.400Z,19.67
2023-02-09T07:06:23.462Z,22.90
2023-02-09T07:08:50.773Z,23.58
2023-02-09T07:11:20.070Z,23.85
2023-02-09T07:13:47.635Z,22.15
2023-02-09T07:16:21.112Z,19.00
2023-02-09T07:18:50.638Z,21.65
2023-02-09T07:24:09.201Z,24.63
2023-02-09T07:26:37.318Z,20.23
2023-02-09T07:29:05.456Z,23.23
2023-02-09T07:31:40.850Z,26.90
2023-02-09T07:34:09.161Z,24.95
2023-02-09T07:36:38.185Z,20.63
2023-02-09T07:39:06.562Z,26.05
2023-02-09T07:41:37.255Z,25.67
2023-02-09T07:44:13.274Z,23.20
2023-02-09T07:46:40.592Z,27.08
2023-02-09T07:49:08.477Z,23.10
2023-02-09T07:51:37.573Z,27.25
2023-02-09T07:54:07.525Z,23.10
2023-02-09T07:56:41.888Z,23.57
2023-02-09T07:59:38.474Z,23.05
2023-02-09T08:02:07.338Z,23.38
2023-02-09T08:04:36.909Z,24.30
2023-02-09T08:07:05.342Z,24.92
2023-02-09T08:09:33.315Z,23.15
2023-02-09T08:12:08.281Z,24.85
2023-02-09T08:14:42.668Z,20.58
2023-02-09T08:17:21.758Z,28.63
2023-02-09T08:20:24.148Z,23.38
2023-02-09T08:22:54.653Z,28.83
2023-02-09T08:25:24.743Z,23.73
2023-02-09T08:27:56.526Z,25.85
2023-02-09T08:30:25.793Z,23.00
2023-02-09T08:32:56.945Z,25.63
2023-02-09T08:35:25.308Z,23.33
2023-02-09T08:38:00.556Z,20.25
2023-02-09T08:40:29.969Z,22.20
2023-02-09T08:42:59.068Z,22.67
2023-02-09T08:45:29.707Z,22.90
2023-02-09T08:48:00.336Z,23.10
2023-02-09T08:50:45.521Z,23.40
2023-02-09T08:53:16.095Z,22.73
2023-02-09T08:55:44.971Z,22.13
2023-02-09T08:58:13.088Z,25.08
2023-02-09T09:00:43.425Z,23.27
2023-02-09T09:03:11.591Z,22.30
2023-02-09T09:05:40.054Z,24.75
2023-02-09T09:08:12.210Z,20.73
2023-02-09T09:10:40.394Z,25.10
2023-02-09T09:13:11.805Z,18.80
2023-02-09T09:15:38.858Z,22.73
2023-02-09T09:18:08.577Z,24.08
2023-02-09T09:20:39.390Z,18.52
2023-02-09T09:23:09.761Z,21.92
2023-02-09T09:25:42.169Z,25.33
2023-02-09T09:30:38.529Z,22.65
2023-02-09T09:33:06.638Z,28.77
2023-02-09T09:35:38.475Z,20.13
2023-02-09T09:38:05.645Z,22.73
2023-02-09T09:40:35.886Z,25.25
2023-02-09T09:43:05.951Z,26.67
2023-02-09T09:45:36.725Z,26.05
2023-02-09T09:48:04.946Z,22.50
2023-02-09T09:50:40.016Z,21.60
2023-02-09T09:53:18.777Z,21.23
2023-02-09T09:55:59.296Z,21.65
2023-02-09T09:58:28.551Z,18.98
2023-02-09T10:00:58.770Z,24.08
2023-02-09T10:03:26.281Z,24.42
2023-02-09T10:06:00.619Z,24.90
2023-02-09T10:08:57.903Z,16.35
2023-02-09T10:12:02.837Z,21.42
2023-02-09T10:14:29.938Z,27.35
2023-02-09T10:16:59.112Z,24.15
2023-02-09T10:19:29.134Z,22.92
2023-02-09T10:21:57.455Z,26.10
2023-02-09T10:24:33.421Z,28.10
2023-02-09T10:27:21.613Z,32.80
2023-02-09T10:29:51.909Z,26.90
2023-02-09T10:32:37.193Z,25.70
2023-02-09T10:35:32.618Z,37.65
2023-02-09T10:38:02.476Z,28.08
2023-02-09T10:40:32.706Z,30.13
2023-02-09T10:43:02.326Z,27.77
2023-02-09T10:45:43.204Z,30.17
2023-02-09T10:48:42.486Z,25.88
2023-02-09T10:51:29.467Z,31.88
2023-02-09T10:54:47.802Z,31.65
2023-02-09T10:57:34.456Z,27.05
2023-02-09T11:00:19.804Z,33.58
2023-02-09T11:02:58.568Z,29.48
2023-02-09T11:05:33.012Z,34.33
2023-02-09T11:08:12.252Z,24.20
2023-02-09T11:11:10.030Z,29.25
2023-02-09T11:13:38.472Z,38.22
2023-02-09T11:16:07.713Z,28.45
2023-02-09T11:18:35.222Z,32.10
2023-02-09T11:21:40.187Z,29.00
2023-02-09T11:24:43.379Z,30.95
2023-02-09T11:30:23.307Z,30.48
2023-02-09T11:33:03.095Z,36.33
2023-02-09T11:36:00.152Z,28.90
2023-02-09T11:42:01.100Z,33.97
2023-02-09T11:44:57.271Z,46.35
2023-02-09T11:47:43.261Z,33.08
2023-02-09T11:50:28.004Z,35.85
2023-02-09T11:56:27.776Z,32.50
2023-02-09T11:59:15.641Z,28.50
2023-02-09T12:02:24.168Z,36.80
2023-02-09T12:05:05.729Z,35.70
2023-02-09T12:11:50.636Z,36.63
2023-02-09T12:14:23.703Z,30.70
2023-02-09T12:17:12.009Z,32.40
2023-02-09T12:19:46.622Z,34.22
2023-02-09T12:22:40.781Z,36.80
2023-02-09T12:25:34.782Z,35.85
2023-02-09T12:28:14.601Z,35.53
2023-02-09T12:30:50.936Z,32.70
2023-02-09T12:33:24.480Z,31.67
2023-02-09T12:36:12.521Z,29.88
2023-02-09T12:39:04.138Z,34.65
2023-02-09T12:41:34.559Z,31.90
2023-02-09T12:44:12.928Z,32.08
2023-02-09T12:46:47.445Z,32.05
2023-02-09T12:49:24.517Z,38.05
2023-02-09T12:51:52.740Z,32.97
2023-02-09T12:54:40.210Z,43.35
2023-02-09T12:57:19.329Z,35.10
2023-02-09T12:59:59.165Z,34.35
2023-02-09T13:02:50.734Z,34.88
2023-02-09T13:05:28.124Z,36.35
2023-02-09T13:08:31.720Z,34.05
2023-02-09T13:11:21.576Z,37.90
2023-02-09T13:14:07.766Z,33.28
2023-02-09T13:16:44.715Z,40.92
2023-02-09T13:19:50.827Z,37.38
2023-02-09T13:23:00.042Z,36.45
2023-02-09T13:25:38.476Z,34.85
2023-02-09T13:28:18.669Z,37.25
2023-02-09T13:30:47.235Z,37.97
2023-02-09T13:33:43.231Z,41.85
2023-02-09T13:36:24.973Z,38.92
2023-02-09T13:39:02.171Z,43.70
2023-02-09T13:41:38.499Z,42.30
2023-02-09T13:44:20.381Z,44.38
2023-02-09T13:46:59.176Z,42.75
2023-02-09T13:49:32.045Z,37.15
2023-02-09T13:52:23.503Z,39.55
2023-02-09T13:54:52.989Z,43.35
2023-02-09T13:57:31.033Z,44.40
2023-02-09T14:00:36.356Z,39.30
2023-02-09T14:03:16.333Z,41.47
2023-02-09T14:06:08.969Z,44.28
2023-02-09T14:08:39.644Z,38.00
2023-02-09T14:11:41.997Z,42.72
2023-02-09T14:15:05.773Z,42.45
2023-02-09T14:17:35.341Z,43.60
2023-02-09T14:20:04.180Z,42.55
2023-02-09T14:22:38.230Z,43.35
2023-02-09T14:25:24.344Z,38.47
2023-02-09T14:27:53.544Z,50.92
2023-02-09T14:30:25.668Z,48.05
2023-02-09T14:32:57.980Z,43.22
2023-02-09T14:35:29.037Z,43.65
2023-02-09T14:38:01.737Z,46.72
2023-02-09T14:43:04.103Z,45.60
2023-02-09T14:45:46.621Z,43.13
2023-02-09T14:48:28.015Z,42.78
2023-02-09T14:50:59.182Z,51.22
2023-02-09T14:53:33.329Z,45.70
2023-02-09T14:56:01.788Z,46.55
2023-02-09T14:58:33.451Z,45.38
2023-02-09T15:01:03.298Z,45.08
2023-02-09T15:03:32.039Z,48.83
2023-02-09T15:06:05.172Z,48.08
2023-02-09T15:08:39.205Z,43.92
2023-02-09T15:14:04.905Z,45.92
2023-02-09T15:16:32.996Z,50.63
2023-02-09T15:19:00.294Z,44.25
2023-02-09T15:21:28.607Z,51.20
2023-02-09T15:23:57.358Z,42.70
2023-02-09T15:26:27.558Z,40.55
2023-02-09T15:28:55.486Z,46.65
2023-02-09T15:31:22.630Z,46.60
2023-02-09T15:33:58.791Z,45.25
2023-02-09T15:36:29.423Z,44.47
2023-02-09T15:38:59.410Z,42.58
2023-02-09T15:41:49.498Z,43.88
2023-02-09T15:44:37.766Z,48.25
2023-02-09T15:47:29.204Z,56.10
2023-02-09T15:49:57.217Z,41.30
2023-02-09T15:52:26.730Z,45.92
2023-02-09T15:54:54.209Z,45.25
2023-02-09T15:57:27.544Z,45.08
2023-02-09T15:59:55.714Z,46.05
2023-02-09T16:02:24.021Z,45.53
2023-02-09T16:04:52.195Z,52.05
2023-02-09T16:07:26.444Z,44.35
2023-02-09T16:09:58.012Z,47.70
2023-02-09T16:12:28.847Z,41.50
2023-02-09T16:14:56.710Z,45.97
2023-02-09T16:17:23.873Z,42.25
2023-02-09T16:19:52.079Z,45.17
2023-02-09T16:22:26.114Z,67.13
2023-02-09T16:24:53.805Z,46.13
2023-02-09T16:27:26.409Z,46.03
2023-02-09T16:32:31.779Z,37.97
2023-02-09T16:35:11.062Z,42.17
2023-02-09T16:37:45.536Z,49.15
2023-02-09T16:40:28.472Z,43.42
2023-02-09T16:45:35.652Z,36.97
2023-02-09T16:48:06.727Z,43.95
2023-02-09T16:50:42.043Z,41.35
2023-02-09T16:53:39.734Z,39.67
2023-02-09T16:56:15.782Z,46.28
2023-02-09T16:58:47.430Z,42.83
2023-02-09T17:01:25.013Z,41.75
2023-02-09T17:03:58.361Z,46.92
2023-02-09T17:06:29.854Z,46.67
2023-02-09T17:08:59.245Z,42.47
2023-02-09T17:11:27.826Z,48.25
2023-02-09T17:13:54.770Z,44.70
2023-02-09T17:16:34.489Z,49.13
2023-02-09T17:19:03.339Z,41.08
2023-02-09T17:21:35.449Z,42.88
2023-02-09T17:24:05.164Z,46.05
2023-02-09T17:26:34.246Z,49.53
2023-02-09T17:29:01.397Z,41.08
2023-02-09T17:31:43.828Z,46.47
2023-02-09T17:34:19.294Z,39.47
2023-02-09T17:36:46.509Z,45.05
2023-02-09T17:39:14.521Z,41.75
2023-02-09T17:41:48.598Z,45.13
2023-02-09T17:44:29.132Z,44.17
2023-02-09T17:47:08.086Z,52.08
2023-02-09T17:49:36.124Z,42.03
2023-02-09T17:52:03.480Z,45.08
2023-02-09T17:54:32.714Z,55.30
2023-02-09T17:56:59.853Z,45.85
2023-02-09T18:00:29.839Z,43.35
2023-02-09T18:03:26.669Z,46.97
2023-02-09T18:06:05.398Z,46.17
2023-02-09T18:13:31.216Z,42.42
2023-02-09T18:16:23.652Z,43.95
2023-02-09T18:18:54.903Z,46.28
2023-02-09T18:21:29.540Z,44.88
2023-02-09T18:24:14.237Z,45.92
2023-02-09T18:26:45.199Z,46.63
2023-02-09T18:29:17.438Z,44.17
2023-02-09T18:31:47.980Z,54.10
2023-02-09T18:34:17.085Z,46.75
2023-02-09T18:36:44.008Z,42.38
2023-02-09T18:39:11.991Z,51.13
2023-02-09T18:41:39.595Z,48.05
2023-02-09T18:44:08.525Z,47.90
2023-02-09T18:46:43.713Z,50.90
2023-02-09T18:49:17.711Z,48.50
2023-02-09T18:51:47.548Z,50.08
2023-02-09T18:54:43.697Z,43.85
2023-02-09T18:57:29.144Z,51.47
2023-02-09T18:59:57.762Z,52.03
2023-02-09T19:02:24.871Z,59.95
2023-02-09T19:04:52.869Z,49.30
2023-02-09T19:07:19.935Z,58.75
2023-02-09T19:09:47.047Z,53.47
2023-02-09T19:12:41.574Z,55.13
2023-02-09T19:15:48.597Z,58.65
2023-02-09T19:18:18.850Z,65.45
2023-02-09T19:20:52.771Z,52.53
2023-02-09T19:23:20.186Z,60.25
2023-02-09T19:25:50.852Z,58.50
2023-02-09T19:28:20.368Z,58.80
2023-02-09T19:30:49.384Z,58.25
2023-02-09T19:33:20.048Z,61.40
2023-02-09T19:36:09.231Z,53.85
2023-02-09T19:38:38.911Z,56.65
2023-02-09T19:41:12.402Z,54.78
2023-02-09T19:43:40.823Z,56.85
2023-02-09T19:46:19.840Z,44.72
2023-02-09T19:48:54.409Z,60.53
2023-02-09T19:51:25.276Z,55.38
2023-02-09T19:53:56.258Z,52.45
2023-02-09T19:56:24.298Z,60.80
2023-02-09T19:58:53.335Z,57.90
2023-02-09T20:01:22.949Z,57.08
2023-02-09T20:03:58.513Z,62.90
2023-02-09T20:06:26.897Z,56.45
2023-02-09T20:08:55.696Z,57.42
2023-02-09T20:11:25.094Z,61.38
2023-02-09T20:13:53.857Z,64.85
2023-02-09T20:16:26.550Z,57.80
2023-02-09T20:18:55.121Z,52.42
2023-02-09T20:21:27.987Z,59.15
2023-02-09T20:23:58.528Z,56.00
2023-02-09T20:26:36.822Z,51.45
2023-02-09T20:29:15.748Z,54.55
2023-02-09T20:31:51.047Z,58.72
2023-02-09T20:34:52.799Z,63.03
2023-02-09T20:37:23.065Z,55.78
2023-02-09T20:40:01.897Z,58.17
2023-02-09T20:42:51.495Z,59.80
2023-02-09T20:45:40.506Z,54.38
2023-02-09T20:48:17.785Z,64.57
2023-02-09T20:50:46.143Z,51.90
2023-02-09T20:53:26.012Z,54.38
2023-02-09T20:55:53.242Z,64.93
2023-02-09T20:58:20.639Z,57.63
2023-02-09T21:00:49.358Z,59.70
2023-02-09T21:06:29.999Z,57.35
2023-02-09T21:09:00.499Z,49.58
2023-02-09T21:11:29.081Z,50.72
2023-02-09T21:14:02.370Z,58.28
2023-02-09T21:16:32.440Z,60.45
2023-02-09T21:19:01.270Z,51.30
2023-02-09T21:21:29.738Z,52.63
2023-02-09T21:23:56.626Z,50.20
2023-02-09T21:26:28.967Z,56.15
2023-02-09T21:29:06.035Z,56.80
2023-02-09T21:31:36.097Z,54.67
2023-02-09T21:34:03.902Z,54.15
2023-02-09T21:36:34.820Z,53.30
2023-02-09T21:39:02.065Z,55.78
2023-02-09T21:41:47.502Z,58.15
2023-02-09T21:44:16.174Z,55.90
2023-02-09T21:46:45.388Z,54.92
2023-02-09T21:51:58.319Z,52.20
2023-02-09T21:54:33.901Z,55.03
2023-02-09T21:57:02.424Z,64.63
2023-02-09T21:59:31.647Z,60.72
2023-02-09T22:01:59.680Z,53.28
2023-02-09T22:04:28.506Z,52.40
2023-02-09T22:06:57.559Z,54.55
2023-02-09T22:09:25.863Z,53.20
2023-02-09T22:11:52.898Z,56.10
2023-02-09T22:14:25.595Z,55.45
2023-02-09T22:19:20.825Z,53.28
2023-02-09T22:21:48.589Z,55.08
2023-02-09T22:24:16.701Z,56.75
2023-02-09T22:29:27.406Z,60.13
2023-02-09T22:31:56.457Z,54.60
2023-02-09T22:34:26.538Z,59.33
2023-02-09T22:37:00.589Z,63.97
2023-02-09T22:39:28.043Z,56.53
2023-02-09T22:41:58.748Z,59.63
2023-02-09T22:44:30.726Z,59.80
2023-02-09T22:47:00.773Z,56.97
2023-02-09T22:49:28.129Z,60.72
2023-02-09T22:52:00.709Z,62.30
2023-02-09T22:54:28.365Z,64.50
2023-02-09T22:56:56.114Z,61.92
2023-02-09T22:59:25.025Z,56.85
2023-02-09T23:01:51.911Z,65.47
2023-02-09T23:04:18.965Z,65.47
2023-02-09T23:06:46.579Z,66.03
2023-02-09T23:09:14.553Z,60.95
2023-02-09T23:11:41.991Z,65.53
2023-02-09T23:14:11.370Z,60.58
2023-02-09T23:16:41.132Z,65.22
2023-02-09T23:19:17.392Z,65.78
2023-02-09T23:21:47.500Z,65.38
2023-02-09T23:24:17.386Z,63.53
2023-02-09T23:26:46.129Z,62.67
2023-02-09T23:29:16.322Z,62.92
2023-02-09T23:31:45.080Z,71.18
2023-02-09T23:34:17.090Z,70.75
2023-02-09T23:36:45.262Z,64.03
2023-02-09T23:39:25.380Z,63.03
2023-02-09T23:41:52.502Z,68.90
2023-02-09T23:44:22.598Z,64.38
2023-02-09T23:46:49.677Z,62.20
2023-02-09T23:49:22.654Z,72.57
2023-02-09T23:51:53.193Z,65.85
2023-02-09T23:54:20.179Z,62.90
2023-02-09T23:56:49.611Z,63.10
2023-02-09T23:59:16.716Z,65.93
